sensor_id;sensor_type;location;lat;lon;timestamp;pressure;altitude;pressure_sealevel;temperature
27986;BMP280;15453;53.692;10.168;2023-03-01T00:01:15;102882.53;;;4.36
27986;BMP280;15453;53.692;10.168;2023-03-01T00:03:41;102882.53;;;4.36
27986;BMP280;15453;53.692;10.168;2023-03-01T00:06:07;102886.56;;;4.32
27986;BMP280;15453;53.692;10.168;2023-03-01T00:08:32;102876.72;;;4.31
27986;BMP280;15453;53.692;10.168;2023-03-01T00:11:21;102874.88;;;4.32
27986;BMP280;15453;53.692;10.168;2023-03-01T00:13:49;102874.00;;;4.31
27986;BMP280;15453;53.692;10.168;2023-03-01T00:16:18;102874.00;;;4.31
27986;BMP280;15453;53.692;10.168;2023-03-01T00:18:43;102873.47;;;4.28
27986;BMP280;15453;53.692;10.168;2023-03-01T00:21:10;102875.34;;;4.27
27986;BMP280;15453;53.692;10.168;2023-03-01T00:23:36;102882.44;;;4.28
27986;BMP280;15453;53.692;10.168;2023-03-01T00:26:06;102882.44;;;4.28
27986;BMP280;15453;53.692;10.168;2023-03-01T00:28:31;102872.94;;;4.24
27986;BMP280;15453;53.692;10.168;2023-03-01T00:31:03;102886.63;;;4.23
27986;BMP280;15453;53.692;10.168;2023-03-01T00:33:28;102886.63;;;4.23
27986;BMP280;15453;53.692;10.168;2023-03-01T00:35:53;102875.09;;;4.21
27986;BMP280;15453;53.692;10.168;2023-03-01T00:38:18;102871.72;;;4.19
27986;BMP280;15453;53.692;10.168;2023-03-01T00:40:44;102878.84;;;4.20
27986;BMP280;15453;53.692;10.168;2023-03-01T00:43:09;102878.84;;;4.20
27986;BMP280;15453;53.692;10.168;2023-03-01T00:45:35;102868.44;;;4.15
27986;BMP280;15453;53.692;10.168;2023-03-01T00:48:00;102867.63;;;4.15
27986;BMP280;15453;53.692;10.168;2023-03-01T00:50:25;102866.91;;;4.13
27986;BMP280;15453;53.692;10.168;2023-03-01T00:52:55;102866.91;;;4.13
27986;BMP280;15453;53.692;10.168;2023-03-01T00:55:20;102866.22;;;4.11
27986;BMP280;15453;53.692;10.168;2023-03-01T00:57:46;102864.50;;;4.10
27986;BMP280;15453;53.692;10.168;2023-03-01T01:00:11;102867.19;;;4.10
27986;BMP280;15453;53.692;10.168;2023-03-01T01:02:37;102869.22;;;4.08
27986;BMP280;15453;53.692;10.168;2023-03-01T01:05:02;102867.53;;;4.07
27986;BMP280;15453;53.692;10.168;2023-03-01T01:07:28;102855.81;;;4.06
27986;BMP280;15453;53.692;10.168;2023-03-01T01:09:53;102858.69;;;4.05
27986;BMP280;15453;53.692;10.168;2023-03-01T01:12:18;102863.44;;;4.03
27986;BMP280;15453;53.692;10.168;2023-03-01T01:14:43;102859.84;;;4.02
27986;BMP280;15453;53.692;10.168;2023-03-01T01:17:09;102859.84;;;4.02
27986;BMP280;15453;53.692;10.168;2023-03-01T01:19:34;102846.75;;;3.98
27986;BMP280;15453;53.692;10.168;2023-03-01T01:21:59;102850.31;;;3.98
27986;BMP280;15453;53.692;10.168;2023-03-01T01:24:25;102846.94;;;3.96
27986;BMP280;15453;53.692;10.168;2023-03-01T01:26:50;102847.09;;;3.95
27986;BMP280;15453;53.692;10.168;2023-03-01T01:29:15;102847.91;;;3.95
27986;BMP280;15453;53.692;10.168;2023-03-01T01:31:42;102847.91;;;3.95
27986;BMP280;15453;53.692;10.168;2023-03-01T01:34:13;102841.97;;;3.92
27986;BMP280;15453;53.692;10.168;2023-03-01T01:36:38;102839.41;;;3.90
27986;BMP280;15453;53.692;10.168;2023-03-01T01:39:03;102834.13;;;3.89
27986;BMP280;15453;53.692;10.168;2023-03-01T01:41:30;102834.13;;;3.89
27986;BMP280;15453;53.692;10.168;2023-03-01T01:49:17;102821.22;;;3.83
27986;BMP280;15453;53.692;10.168;2023-03-01T01:51:45;102825.91;;;3.81
27986;BMP280;15453;53.692;10.168;2023-03-01T01:54:20;102821.66;;;3.78
27986;BMP280;15453;53.692;10.168;2023-03-01T01:56:59;102821.81;;;3.77
27986;BMP280;15453;53.692;10.168;2023-03-01T01:59:27;102821.81;;;3.77
27986;BMP280;15453;53.692;10.168;2023-03-01T02:01:53;102806.03;;;3.72
27986;BMP280;15453;53.692;10.168;2023-03-01T02:04:20;102813.31;;;3.72
27986;BMP280;15453;53.692;10.168;2023-03-01T02:06:55;102810.75;;;3.70
27986;BMP280;15453;53.692;10.168;2023-03-01T02:09:23;102816.50;;;3.67
27986;BMP280;15453;53.692;10.168;2023-03-01T02:11:49;102819.19;;;3.67
27986;BMP280;15453;53.692;10.168;2023-03-01T02:14:15;102804.09;;;3.65
27986;BMP280;15453;53.692;10.168;2023-03-01T02:16:41;102814.09;;;3.64
27986;BMP280;15453;53.692;10.168;2023-03-01T02:19:08;102815.09;;;3.63
27986;BMP280;15453;53.692;10.168;2023-03-01T02:21:57;102810.84;;;3.61
27986;BMP280;15453;53.692;10.168;2023-03-01T02:24:52;102816.56;;;3.58
27986;BMP280;15453;53.692;10.168;2023-03-01T02:27:26;102811.81;;;3.60
27986;BMP280;15453;53.692;10.168;2023-03-01T02:29:53;102809.09;;;3.60
27986;BMP280;15453;53.692;10.168;2023-03-01T02:32:19;102809.09;;;3.60
27986;BMP280;15453;53.692;10.168;2023-03-01T02:34:51;102802.28;;;3.56
27986;BMP280;15453;53.692;10.168;2023-03-01T02:37:17;102800.59;;;3.55
27986;BMP280;15453;53.692;10.168;2023-03-01T02:39:53;102800.59;;;3.55
27986;BMP280;15453;53.692;10.168;2023-03-01T02:42:26;102796.63;;;3.49
27986;BMP280;15453;53.692;10.168;2023-03-01T02:44:51;102795.09;;;3.47
27986;BMP280;15453;53.692;10.168;2023-03-01T02:47:16;102795.97;;;3.47
27986;BMP280;15453;53.692;10.168;2023-03-01T02:49:42;102784.59;;;3.44
27986;BMP280;15453;53.692;10.168;2023-03-01T02:52:23;102784.59;;;3.44
27986;BMP280;15453;53.692;10.168;2023-03-01T02:55:08;102790.44;;;3.39
27986;BMP280;15453;53.692;10.168;2023-03-01T02:57:35;102796.72;;;3.40
27986;BMP280;15453;53.692;10.168;2023-03-01T03:00:05;102796.72;;;3.40
27986;BMP280;15453;53.692;10.168;2023-03-01T03:02:32;102789.75;;;3.37
27986;BMP280;15453;53.692;10.168;2023-03-01T03:05:09;102789.75;;;3.37
27986;BMP280;15453;53.692;10.168;2023-03-01T03:07:37;102779.22;;;3.34
27986;BMP280;15453;53.692;10.168;2023-03-01T03:10:04;102779.22;;;3.34
27986;BMP280;15453;53.692;10.168;2023-03-01T03:12:31;102782.22;;;3.31
27986;BMP280;15453;53.692;10.168;2023-03-01T03:14:56;102790.22;;;3.33
27986;BMP280;15453;53.692;10.168;2023-03-01T03:17:21;102790.22;;;3.33
27986;BMP280;15453;53.692;10.168;2023-03-01T03:19:47;102786.63;;;3.32
27986;BMP280;15453;53.692;10.168;2023-03-01T03:22:12;102786.63;;;3.32
27986;BMP280;15453;53.692;10.168;2023-03-01T03:24:37;102785.97;;;3.30
27986;BMP280;15453;53.692;10.168;2023-03-01T03:27:04;102788.66;;;3.30
27986;BMP280;15453;53.692;10.168;2023-03-01T03:29:29;102784.78;;;3.33
27986;BMP280;15453;53.692;10.168;2023-03-01T03:31:54;102781.94;;;3.34
27986;BMP280;15453;53.692;10.168;2023-03-01T03:34:19;102771.50;;;3.39
27986;BMP280;15453;53.692;10.168;2023-03-01T03:36:45;102771.50;;;3.39
27986;BMP280;15453;53.692;10.168;2023-03-01T03:39:10;102773.47;;;3.37
27986;BMP280;15453;53.692;10.168;2023-03-01T03:41:35;102776.59;;;3.42
27986;BMP280;15453;53.692;10.168;2023-03-01T03:44:00;102776.59;;;3.42
27986;BMP280;15453;53.692;10.168;2023-03-01T03:46:26;102763.91;;;3.43
27986;BMP280;15453;53.692;10.168;2023-03-01T03:48:51;102763.91;;;3.43
27986;BMP280;15453;53.692;10.168;2023-03-01T03:51:18;102759.34;;;3.43
27986;BMP280;15453;53.692;10.168;2023-03-01T03:53:44;102754.94;;;3.42
27986;BMP280;15453;53.692;10.168;2023-03-01T03:56:10;102755.78;;;3.43
27986;BMP280;15453;53.692;10.168;2023-03-01T03:58:36;102755.78;;;3.43
27986;BMP280;15453;53.692;10.168;2023-03-01T04:01:01;102746.81;;;3.42
27986;BMP280;15453;53.692;10.168;2023-03-01T04:03:28;102747.66;;;3.43
27986;BMP280;15453;53.692;10.168;2023-03-01T04:05:53;102749.59;;;3.50
27986;BMP280;15453;53.692;10.168;2023-03-01T04:08:21;102748.44;;;3.53
27986;BMP280;15453;53.692;10.168;2023-03-01T04:10:50;102748.44;;;3.53
27986;BMP280;15453;53.692;10.168;2023-03-01T04:13:20;102750.66;;;3.57
27986;BMP280;15453;53.692;10.168;2023-03-01T04:15:52;102752.06;;;3.61
27986;BMP280;15453;53.692;10.168;2023-03-01T04:18:19;102756.47;;;3.62
27986;BMP280;15453;53.692;10.168;2023-03-01T04:20:45;102758.88;;;3.65
27986;BMP280;15453;53.692;10.168;2023-03-01T04:23:15;102763.28;;;3.66
27986;BMP280;15453;53.692;10.168;2023-03-01T04:28:32;102765.97;;;3.66
27986;BMP280;15453;53.692;10.168;2023-03-01T04:31:02;102757.03;;;3.66
27986;BMP280;15453;53.692;10.168;2023-03-01T04:33:37;102754.84;;;3.69
27986;BMP280;15453;53.692;10.168;2023-03-01T04:36:03;102753.53;;;3.73
27986;BMP280;15453;53.692;10.168;2023-03-01T04:38:30;102756.22;;;3.73
27986;BMP280;15453;53.692;10.168;2023-03-01T04:40:55;102753.22;;;3.76
27986;BMP280;15453;53.692;10.168;2023-03-01T04:43:21;102754.47;;;3.82
27986;BMP280;15453;53.692;10.168;2023-03-01T04:45:46;102754.47;;;3.82
27986;BMP280;15453;53.692;10.168;2023-03-01T04:48:11;102755.66;;;3.87
27986;BMP280;15453;53.692;10.168;2023-03-01T04:50:36;102755.66;;;3.87
27986;BMP280;15453;53.692;10.168;2023-03-01T04:53:02;102757.53;;;3.87
27986;BMP280;15453;53.692;10.168;2023-03-01T04:55:28;102757.38;;;3.88
27986;BMP280;15453;53.692;10.168;2023-03-01T04:57:54;102749.94;;;3.90
27986;BMP280;15453;53.692;10.168;2023-03-01T05:00:20;102753.34;;;3.92
27986;BMP280;15453;53.692;10.168;2023-03-01T05:02:47;102755.72;;;3.95
27986;BMP280;15453;53.692;10.168;2023-03-01T05:05:14;102749.13;;;3.98
27986;BMP280;15453;53.692;10.168;2023-03-01T05:07:39;102753.09;;;4.03
27986;BMP280;15453;53.692;10.168;2023-03-01T05:10:04;102753.09;;;4.03
27986;BMP280;15453;53.692;10.168;2023-03-01T05:12:29;102743.63;;;4.07
27986;BMP280;15453;53.692;10.168;2023-03-01T05:14:55;102743.63;;;4.07
27986;BMP280;15453;53.692;10.168;2023-03-01T05:17:20;102744.00;;;4.12
27986;BMP280;15453;53.692;10.168;2023-03-01T05:19:45;102747.56;;;4.13
27986;BMP280;15453;53.692;10.168;2023-03-01T05:22:11;102747.56;;;4.13
27986;BMP280;15453;53.692;10.168;2023-03-01T05:24:36;102743.16;;;4.12
27986;BMP280;15453;53.692;10.168;2023-03-01T05:27:02;102750.13;;;4.14
27986;BMP280;15453;53.692;10.168;2023-03-01T05:29:29;102754.75;;;4.22
27986;BMP280;15453;53.692;10.168;2023-03-01T05:31:57;102744.91;;;4.21
27986;BMP280;15453;53.692;10.168;2023-03-01T05:34:27;102740.00;;;4.24
27986;BMP280;15453;53.692;10.168;2023-03-01T05:36:53;102739.66;;;4.19
27986;BMP280;15453;53.692;10.168;2023-03-01T05:39:23;102726.28;;;4.26
27986;BMP280;15453;53.692;10.168;2023-03-01T05:41:52;102726.28;;;4.26
27986;BMP280;15453;53.692;10.168;2023-03-01T05:44:18;102725.13;;;4.28
27986;BMP280;15453;53.692;10.168;2023-03-01T05:46:43;102725.13;;;4.28
27986;BMP280;15453;53.692;10.168;2023-03-01T05:49:09;102721.41;;;4.29
27986;BMP280;15453;53.692;10.168;2023-03-01T05:51:35;102721.41;;;4.29
27986;BMP280;15453;53.692;10.168;2023-03-01T05:54:00;102720.25;;;4.32
27986;BMP280;15453;53.692;10.168;2023-03-01T05:56:25;102725.66;;;4.32
27986;BMP280;15453;53.692;10.168;2023-03-01T05:58:50;102722.97;;;4.32
27986;BMP280;15453;53.692;10.168;2023-03-01T06:01:16;102722.97;;;4.32
27986;BMP280;15453;53.692;10.168;2023-03-01T06:03:41;102714.28;;;4.28
27986;BMP280;15453;53.692;10.168;2023-03-01T06:06:06;102723.94;;;4.31
27986;BMP280;15453;53.692;10.168;2023-03-01T06:08:32;102723.94;;;4.31
27986;BMP280;15453;53.692;10.168;2023-03-01T06:10:57;102707.16;;;4.27
27986;BMP280;15453;53.692;10.168;2023-03-01T06:13:23;102712.56;;;4.27
27986;BMP280;15453;53.692;10.168;2023-03-01T06:15:48;102712.72;;;4.26
27986;BMP280;15453;53.692;10.168;2023-03-01T06:18:13;102711.72;;;4.27
27986;BMP280;15453;53.692;10.168;2023-03-01T06:20:39;102719.84;;;4.27
27986;BMP280;15453;53.692;10.168;2023-03-01T06:23:04;102719.84;;;4.27
27986;BMP280;15453;53.692;10.168;2023-03-01T06:25:29;102710.72;;;4.28
27986;BMP280;15453;53.692;10.168;2023-03-01T06:27:55;102721.56;;;4.28
27986;BMP280;15453;53.692;10.168;2023-03-01T06:30:21;102720.56;;;4.29
27986;BMP280;15453;53.692;10.168;2023-03-01T06:32:47;102720.56;;;4.29
27986;BMP280;15453;53.692;10.168;2023-03-01T06:35:15;102719.00;;;4.26
27986;BMP280;15453;53.692;10.168;2023-03-01T06:37:43;102723.59;;;4.26
27986;BMP280;15453;53.692;10.168;2023-03-01T06:40:09;102726.66;;;4.31
27986;BMP280;15453;53.692;10.168;2023-03-01T06:42:37;102726.66;;;4.31
27986;BMP280;15453;53.692;10.168;2023-03-01T06:45:05;102730.22;;;4.31
27986;BMP280;15453;53.692;10.168;2023-03-01T06:47:31;102723.31;;;4.37
27986;BMP280;15453;53.692;10.168;2023-03-01T06:49:58;102727.56;;;4.39
27986;BMP280;15453;53.692;10.168;2023-03-01T06:52:24;102727.56;;;4.39
27986;BMP280;15453;53.692;10.168;2023-03-01T06:54:49;102744.06;;;4.46
27986;BMP280;15453;53.692;10.168;2023-03-01T06:57:14;102744.56;;;4.49
27986;BMP280;15453;53.692;10.168;2023-03-01T06:59:39;102744.56;;;4.49
27986;BMP280;15453;53.692;10.168;2023-03-01T07:02:04;102738.50;;;4.55
27986;BMP280;15453;53.692;10.168;2023-03-01T07:04:30;102737.19;;;4.59
27986;BMP280;15453;53.692;10.168;2023-03-01T07:06:55;102737.19;;;4.59
27986;BMP280;15453;53.692;10.168;2023-03-01T07:09:22;102739.38;;;4.64
27986;BMP280;15453;53.692;10.168;2023-03-01T07:11:48;102739.38;;;4.64
27986;BMP280;15453;53.692;10.168;2023-03-01T07:14:13;102727.53;;;4.65
27986;BMP280;15453;53.692;10.168;2023-03-01T07:16:39;102722.97;;;4.73
27986;BMP280;15453;53.692;10.168;2023-03-01T07:19:04;102725.38;;;4.76
27986;BMP280;15453;53.692;10.168;2023-03-01T07:21:30;102725.38;;;4.76
27986;BMP280;15453;53.692;10.168;2023-03-01T07:23:55;102719.78;;;4.78
27986;BMP280;15453;53.692;10.168;2023-03-01T07:26:21;102709.28;;;4.83
27986;BMP280;15453;53.692;10.168;2023-03-01T07:28:46;102716.44;;;4.92
27986;BMP280;15453;53.692;10.168;2023-03-01T07:31:11;102716.44;;;4.92
27986;BMP280;15453;53.692;10.168;2023-03-01T07:33:36;102706.44;;;4.92
27986;BMP280;15453;53.692;10.168;2023-03-01T07:36:03;102699.66;;;4.96
27986;BMP280;15453;53.692;10.168;2023-03-01T07:38:29;102717.84;;;5.04
27986;BMP280;15453;53.692;10.168;2023-03-01T07:40:58;102712.91;;;5.07
27986;BMP280;15453;53.692;10.168;2023-03-01T07:43:24;102712.91;;;5.07
27986;BMP280;15453;53.692;10.168;2023-03-01T07:45:49;102717.69;;;5.13
27986;BMP280;15453;53.692;10.168;2023-03-01T07:48:14;102717.69;;;5.13
27986;BMP280;15453;53.692;10.168;2023-03-01T07:50:39;102709.53;;;5.13
27986;BMP280;15453;53.692;10.168;2023-03-01T07:53:05;102713.78;;;5.16
27986;BMP280;15453;53.692;10.168;2023-03-01T07:55:30;102713.81;;;5.24
27986;BMP280;15453;53.692;10.168;2023-03-01T07:57:55;102709.03;;;5.26
27986;BMP280;15453;53.692;10.168;2023-03-01T08:00:20;102709.03;;;5.26
27986;BMP280;15453;53.692;10.168;2023-03-01T08:02:46;102706.50;;;5.24
27986;BMP280;15453;53.692;10.168;2023-03-01T08:05:11;102704.63;;;5.25
27986;BMP280;15453;53.692;10.168;2023-03-01T08:07:36;102722.63;;;5.26
27986;BMP280;15453;53.692;10.168;2023-03-01T08:10:02;102717.72;;;5.29
27986;BMP280;15453;53.692;10.168;2023-03-01T08:12:28;102718.06;;;5.34
27986;BMP280;15453;53.692;10.168;2023-03-01T08:14:53;102725.03;;;5.37
27986;BMP280;15453;53.692;10.168;2023-03-01T08:17:18;102717.38;;;5.40
27986;BMP280;15453;53.692;10.168;2023-03-01T08:19:44;102717.38;;;5.40
27986;BMP280;15453;53.692;10.168;2023-03-01T08:22:09;102719.78;;;5.43
27986;BMP280;15453;53.692;10.168;2023-03-01T08:24:35;102728.44;;;5.47
27986;BMP280;15453;53.692;10.168;2023-03-01T08:27:00;102728.44;;;5.47
27986;BMP280;15453;53.692;10.168;2023-03-01T08:29:27;102709.56;;;5.45
27986;BMP280;15453;53.692;10.168;2023-03-01T08:31:52;102713.50;;;5.51
27986;BMP280;15453;53.692;10.168;2023-03-01T08:34:18;102717.91;;;5.60
27986;BMP280;15453;53.692;10.168;2023-03-01T08:36:45;102724.72;;;5.64
27986;BMP280;15453;53.692;10.168;2023-03-01T08:39:13;102724.72;;;5.64
27986;BMP280;15453;53.692;10.168;2023-03-01T08:41:39;102719.09;;;5.65
27986;BMP280;15453;53.692;10.168;2023-03-01T08:44:05;102714.22;;;5.69
27986;BMP280;15453;53.692;10.168;2023-03-01T08:46:34;102713.69;;;5.73
27986;BMP280;15453;53.692;10.168;2023-03-01T08:48:59;102716.25;;;5.83
27986;BMP280;15453;53.692;10.168;2023-03-01T08:51:25;102716.25;;;5.83
27986;BMP280;15453;53.692;10.168;2023-03-01T08:53:51;102715.22;;;5.92
27986;BMP280;15453;53.692;10.168;2023-03-01T08:56:18;102715.22;;;5.92
27986;BMP280;15453;53.692;10.168;2023-03-01T08:58:47;102729.31;;;5.95
27986;BMP280;15453;53.692;10.168;2023-03-01T09:01:15;102718.97;;;5.99
27986;BMP280;15453;53.692;10.168;2023-03-01T09:03:41;102718.28;;;6.05
27986;BMP280;15453;53.692;10.168;2023-03-01T09:06:08;102713.84;;;6.12
27986;BMP280;15453;53.692;10.168;2023-03-01T09:08:38;102721.47;;;6.16
27986;BMP280;15453;53.692;10.168;2023-03-01T09:11:04;102718.94;;;6.23
27986;BMP280;15453;53.692;10.168;2023-03-01T09:13:29;102724.16;;;6.32
27986;BMP280;15453;53.692;10.168;2023-03-01T09:15:58;102724.16;;;6.32
27986;BMP280;15453;53.692;10.168;2023-03-01T09:18:23;102714.81;;;6.35
27986;BMP280;15453;53.692;10.168;2023-03-01T09:20:49;102721.59;;;6.39
27986;BMP280;15453;53.692;10.168;2023-03-01T09:23:14;102719.56;;;6.41
27986;BMP280;15453;53.692;10.168;2023-03-01T09:25:39;102719.00;;;6.54
27986;BMP280;15453;53.692;10.168;2023-03-01T09:28:05;102715.59;;;6.60
27986;BMP280;15453;53.692;10.168;2023-03-01T09:30:30;102715.59;;;6.60
27986;BMP280;15453;53.692;10.168;2023-03-01T09:32:58;102710.00;;;6.61
27986;BMP280;15453;53.692;10.168;2023-03-01T09:35:23;102712.00;;;6.67
27986;BMP280;15453;53.692;10.168;2023-03-01T09:37:49;102711.97;;;6.75
27986;BMP280;15453;53.692;10.168;2023-03-01T09:40:20;102703.44;;;6.78
27986;BMP280;15453;53.692;10.168;2023-03-01T09:43:15;102709.19;;;6.83
27986;BMP280;15453;53.692;10.168;2023-03-01T09:45:45;102721.88;;;6.99
27986;BMP280;15453;53.692;10.168;2023-03-01T09:48:18;102721.88;;;6.99
27986;BMP280;15453;53.692;10.168;2023-03-01T09:50:47;102716.75;;;7.04
27986;BMP280;15453;53.692;10.168;2023-03-01T09:53:23;102716.88;;;7.10
27986;BMP280;15453;53.692;10.168;2023-03-01T09:58:50;102721.25;;;7.27
27986;BMP280;15453;53.692;10.168;2023-03-01T10:06:58;102716.69;;;7.42
27986;BMP280;15453;53.692;10.168;2023-03-01T10:09:30;102714.78;;;7.51
27986;BMP280;15453;53.692;10.168;2023-03-01T10:11:57;102724.06;;;7.56
27986;BMP280;15453;53.692;10.168;2023-03-01T10:14:39;102718.09;;;7.61
27986;BMP280;15453;53.692;10.168;2023-03-01T10:17:17;102718.78;;;7.63
27986;BMP280;15453;53.692;10.168;2023-03-01T10:19:45;102716.69;;;7.65
27986;BMP280;15453;53.692;10.168;2023-03-01T10:22:20;102725.34;;;7.68
27986;BMP280;15453;53.692;10.168;2023-03-01T10:24:52;102715.59;;;7.74
27986;BMP280;15453;53.692;10.168;2023-03-01T10:27:25;102715.59;;;7.74
27986;BMP280;15453;53.692;10.168;2023-03-01T10:32:36;102713.22;;;7.71
27986;BMP280;15453;53.692;10.168;2023-03-01T10:35:01;102713.91;;;7.73
27986;BMP280;15453;53.692;10.168;2023-03-01T10:37:26;102705.38;;;7.76
27986;BMP280;15453;53.692;10.168;2023-03-01T10:40:03;102703.09;;;7.79
27986;BMP280;15453;53.692;10.168;2023-03-01T10:42:45;102705.28;;;7.84
27986;BMP280;15453;53.692;10.168;2023-03-01T10:48:15;102705.22;;;7.92
27986;BMP280;15453;53.692;10.168;2023-03-01T10:50:42;102696.47;;;7.96
27986;BMP280;15453;53.692;10.168;2023-03-01T10:53:42;102691.97;;;8.03
27986;BMP280;15453;53.692;10.168;2023-03-01T10:56:11;102688.03;;;8.06
27986;BMP280;15453;53.692;10.168;2023-03-01T11:06:32;102687.72;;;8.23
27986;BMP280;15453;53.692;10.168;2023-03-01T11:09:13;102682.53;;;8.28
27986;BMP280;15453;53.692;10.168;2023-03-01T11:11:39;102686.19;;;8.35
27986;BMP280;15453;53.692;10.168;2023-03-01T11:14:25;102676.22;;;8.42
27986;BMP280;15453;53.692;10.168;2023-03-01T11:17:02;102673.75;;;8.47
27986;BMP280;15453;53.692;10.168;2023-03-01T11:19:28;102674.88;;;8.53
27986;BMP280;15453;53.692;10.168;2023-03-01T11:22:01;102674.16;;;8.59
27986;BMP280;15453;53.692;10.168;2023-03-01T11:24:37;102669.78;;;8.64
27986;BMP280;15453;53.692;10.168;2023-03-01T11:27:09;102665.25;;;8.71
27986;BMP280;15453;53.692;10.168;2023-03-01T11:29:41;102655.47;;;8.77
27986;BMP280;15453;53.692;10.168;2023-03-01T11:32:10;102653.84;;;8.82
27986;BMP280;15453;53.692;10.168;2023-03-01T11:34:42;102665.69;;;8.89
27986;BMP280;15453;53.692;10.168;2023-03-01T11:37:21;102654.88;;;8.96
27986;BMP280;15453;53.692;10.168;2023-03-01T11:40:03;102653.22;;;9.01
27986;BMP280;15453;53.692;10.168;2023-03-01T11:42:42;102654.16;;;9.08
27986;BMP280;15453;53.692;10.168;2023-03-01T11:45:11;102654.03;;;9.16
27986;BMP280;15453;53.692;10.168;2023-03-01T11:50:21;102642.84;;;9.32
27986;BMP280;15453;53.692;10.168;2023-03-01T11:53:06;102641.22;;;9.38
27986;BMP280;15453;53.692;10.168;2023-03-01T12:04:24;102636.81;;;9.64
27986;BMP280;15453;53.692;10.168;2023-03-01T12:07:03;102636.91;;;9.71
27986;BMP280;15453;53.692;10.168;2023-03-01T12:09:36;102633.16;;;9.78
27986;BMP280;15453;53.692;10.168;2023-03-01T12:12:23;102644.13;;;9.78
27986;BMP280;15453;53.692;10.168;2023-03-01T12:15:15;102635.81;;;9.93
27986;BMP280;15453;53.692;10.168;2023-03-01T12:20:20;102628.34;;;10.08
27986;BMP280;15453;53.692;10.168;2023-03-01T12:23:31;102632.50;;;10.25
27986;BMP280;15453;53.692;10.168;2023-03-01T12:28:45;102617.97;;;10.31
27986;BMP280;15453;53.692;10.168;2023-03-01T12:34:49;102621.72;;;10.64
27986;BMP280;15453;53.692;10.168;2023-03-01T12:40:27;102601.72;;;10.70
27986;BMP280;15453;53.692;10.168;2023-03-01T12:43:04;102606.78;;;10.73
27986;BMP280;15453;53.692;10.168;2023-03-01T12:45:42;102586.78;;;10.79
27986;BMP280;15453;53.692;10.168;2023-03-01T12:50:53;102584.91;;;10.86
27986;BMP280;15453;53.692;10.168;2023-03-01T12:55:50;102571.22;;;10.99
27986;BMP280;15453;53.692;10.168;2023-03-01T13:00:53;102578.66;;;11.11
27986;BMP280;15453;53.692;10.168;2023-03-01T13:03:35;102567.88;;;11.16
27986;BMP280;15453;53.692;10.168;2023-03-01T13:07:11;102566.84;;;11.30
27986;BMP280;15453;53.692;10.168;2023-03-01T13:09:32;102566.84;;;11.30
27986;BMP280;15453;53.692;10.168;2023-03-01T13:12:00;102574.03;;;11.38
27986;BMP280;15453;53.692;10.168;2023-03-01T13:16:54;102564.31;;;11.48
27986;BMP280;15453;53.692;10.168;2023-03-01T13:19:22;102572.13;;;11.51
27986;BMP280;15453;53.692;10.168;2023-03-01T13:21:50;102559.44;;;11.57
27986;BMP280;15453;53.692;10.168;2023-03-01T13:24:27;102557.19;;;11.60
27986;BMP280;15453;53.692;10.168;2023-03-01T13:29:43;102552.94;;;11.71
27986;BMP280;15453;53.692;10.168;2023-03-01T13:34:46;102552.69;;;11.79
27986;BMP280;15453;53.692;10.168;2023-03-01T13:37:19;102549.31;;;11.83
27986;BMP280;15453;53.692;10.168;2023-03-01T13:39:45;102549.72;;;11.87
27986;BMP280;15453;53.692;10.168;2023-03-01T13:42:36;102536.44;;;11.91
27986;BMP280;15453;53.692;10.168;2023-03-01T13:45:04;102541.28;;;11.88
27986;BMP280;15453;53.692;10.168;2023-03-01T13:47:32;102534.97;;;11.88
27986;BMP280;15453;53.692;10.168;2023-03-01T13:50:01;102530.50;;;11.87
27986;BMP280;15453;53.692;10.168;2023-03-01T13:52:39;102538.13;;;11.85
27986;BMP280;15453;53.692;10.168;2023-03-01T13:55:16;102530.31;;;11.82
27986;BMP280;15453;53.692;10.168;2023-03-01T13:57:44;102535.41;;;11.78
27986;BMP280;15453;53.692;10.168;2023-03-01T14:00:38;102535.41;;;11.78
27986;BMP280;15453;53.692;10.168;2023-03-01T14:03:11;102533.72;;;11.71
27986;BMP280;15453;53.692;10.168;2023-03-01T14:05:39;102536.03;;;11.67
27986;BMP280;15453;53.692;10.168;2023-03-01T14:08:18;102529.28;;;11.63
27986;BMP280;15453;53.692;10.168;2023-03-01T14:10:52;102519.13;;;11.57
27986;BMP280;15453;53.692;10.168;2023-03-01T14:16:26;102510.06;;;11.57
27986;BMP280;15453;53.692;10.168;2023-03-01T14:19:05;102508.56;;;11.54
27986;BMP280;15453;53.692;10.168;2023-03-01T14:21:34;102514.72;;;11.56
27986;BMP280;15453;53.692;10.168;2023-03-01T14:24:01;102504.78;;;11.55
27986;BMP280;15453;53.692;10.168;2023-03-01T14:26:27;102504.78;;;11.55
27986;BMP280;15453;53.692;10.168;2023-03-01T14:28:52;102502.22;;;11.54
27986;BMP280;15453;53.692;10.168;2023-03-01T14:31:38;102506.91;;;11.53
27986;BMP280;15453;53.692;10.168;2023-03-01T14:34:04;102497.41;;;11.49
27986;BMP280;15453;53.692;10.168;2023-03-01T14:36:33;102493.19;;;11.47
27986;BMP280;15453;53.692;10.168;2023-03-01T14:38:58;102491.94;;;11.43
27986;BMP280;15453;53.692;10.168;2023-03-01T14:41:33;102487.06;;;11.38
27986;BMP280;15453;53.692;10.168;2023-03-01T14:44:00;102488.13;;;11.37
27986;BMP280;15453;53.692;10.168;2023-03-01T14:46:32;102485.59;;;11.29
27986;BMP280;15453;53.692;10.168;2023-03-01T14:49:03;102499.72;;;11.33
27986;BMP280;15453;53.692;10.168;2023-03-01T14:51:29;102489.81;;;11.32
27986;BMP280;15453;53.692;10.168;2023-03-01T14:53:55;102476.31;;;11.30
27986;BMP280;15453;53.692;10.168;2023-03-01T14:56:21;102472.72;;;11.30
27986;BMP280;15453;53.692;10.168;2023-03-01T14:58:50;102468.53;;;11.27
27986;BMP280;15453;53.692;10.168;2023-03-01T15:01:17;102476.09;;;11.25
27986;BMP280;15453;53.692;10.168;2023-03-01T15:03:45;102464.50;;;11.23
27986;BMP280;15453;53.692;10.168;2023-03-01T15:06:14;102464.94;;;11.20
27986;BMP280;15453;53.692;10.168;2023-03-01T15:08:42;102463.88;;;11.15
27986;BMP280;15453;53.692;10.168;2023-03-01T15:11:29;102463.88;;;11.15
27986;BMP280;15453;53.692;10.168;2023-03-01T15:13:55;102463.66;;;11.10
27986;BMP280;15453;53.692;10.168;2023-03-01T15:16:29;102463.66;;;11.10